Obelix — 7JAX — position and weather

sailwx.info

Track history (hours):
 
Tides and Currents Weather Stations Pressure Air Temp Water Temp Dewpoint Dewpoint Depression Visibility Wind Speed Wind Dir Waves Ship Positions

Obelix

Last reported at 2018-May-21 13:37 UTC. Time now 2018-May-21 14:38 UTC.
Position N 34°43' E 134°48'.

Length 73 m; draft 4.5 m.

Type: Tanker. MMSI: 432528000.

Date/timePositionNaut miles runAvg speedWind from/ knotsBaromVisibWave heightAir tempDewpointWater temp
2018-May-21 13:37N 34°43' E 134°48'0 0.0
2018-May-21 09:28N 34°43' E 134°48'4 7.2
2018-May-21 08:59N 34°40' E 134°50'4 9.4
2018-May-21 08:30N 34°37' E 134°54'610.5
2018-May-21 07:55N 34°37' E 135°02'410.3
2018-May-21 07:30N 34°35' E 135°06'611.6
2018-May-21 07:00N 34°34' E 135°13'510.0
2018-May-21 06:30N 34°32' E 135°19'1 1.5
2018-May-21 05:55N 34°32' E 135°20'0 0.1
2018-May-21 05:29N 34°32' E 135°20'4 8.5
2018-May-21 04:59N 34°33' E 135°25'1 1.7
2018-May-21 04:28N 34°33' E 135°25'0 0.0
2018-May-21 03:55N 34°33' E 135°25'0 0.0
2018-May-21 03:19N 34°33' E 135°25'0 0.0
2018-May-21 02:55N 34°33' E 135°25'0 0.0
2018-May-21 02:25N 34°33' E 135°25'0 0.0
2018-May-21 01:49N 34°33' E 135°25'0 0.0
2018-May-21 01:25N 34°33' E 135°25'0 0.0
2018-May-21 00:55N 34°33' E 135°25'0 0.0
2018-May-21 00:25N 34°33' E 135°25'0 0.9
2018-May-21 00:00N 34°33' E 135°25'1 1.7
2018-May-20 23:30N 34°33' E 135°24'3 6.8
2018-May-20 23:01N 34°34' E 135°20'510.1
2018-May-20 22:30N 34°35' E 135°14'5 9.7
2018-May-20 22:00N 34°39' E 135°11'1 1.5
2018-May-20 21:28N 34°40' E 135°11'0 0.0
2018-May-20 20:58N 34°40' E 135°11'0 0.0
2018-May-20 20:28N 34°40' E 135°11'0 0.0
2018-May-20 19:58N 34°40' E 135°11'0 0.0
2018-May-20 19:28N 34°40' E 135°11'0 0.0
2018-May-20 18:58N 34°40' E 135°11'0 0.0
2018-May-20 18:28N 34°40' E 135°11'0 0.0
2018-May-20 17:58N 34°40' E 135°11'0 0.0
2018-May-20 17:28N 34°40' E 135°11'0 0.0
2018-May-20 16:58N 34°40' E 135°11'0 0.0
2018-May-20 16:28N 34°40' E 135°11'0 0.0
2018-May-20 15:58N 34°40' E 135°11'0 0.0
2018-May-20 15:28N 34°40' E 135°11'0 0.0
2018-May-20 14:58N 34°40' E 135°11'0 0.0
2018-May-20 14:28N 34°40' E 135°11'0 0.0
2018-May-20 13:58N 34°40' E 135°11'0 0.0
2018-May-20 13:28N 34°40' E 135°11'0 0.0
2018-May-20 12:58N 34°40' E 135°11'0 0.0
2018-May-20 12:28N 34°40' E 135°11'0 0.0
2018-May-20 11:58N 34°40' E 135°11'0 0.0
2018-May-20 11:28N 34°40' E 135°11'0 0.0
2018-May-20 10:58N 34°40' E 135°11'0 0.0
2018-May-20 10:28N 34°40' E 135°11'0 0.0
2018-May-20 09:58N 34°40' E 135°11'0 0.0
2018-May-20 09:28N 34°40' E 135°11'0 0.0
2018-May-20 08:58N 34°40' E 135°11'0 0.0
2018-May-20 08:28N 34°40' E 135°11'0 0.0
2018-May-20 07:58N 34°40' E 135°11'0 0.0
2018-May-20 07:28N 34°40' E 135°11'0 0.0
2018-May-20 06:58N 34°40' E 135°11'0 0.0
2018-May-20 06:28N 34°40' E 135°11'0 0.0
2018-May-20 05:52N 34°40' E 135°11'0 0.0
2018-May-20 05:28N 34°40' E 135°11'0 0.0
2018-May-20 04:58N 34°40' E 135°11'0 0.0
2018-May-20 04:28N 34°40' E 135°11'0 0.0
2018-May-20 03:58N 34°40' E 135°11'0 0.0
2018-May-20 03:28N 34°40' E 135°11'0 0.0
2018-May-20 02:58N 34°40' E 135°11'0 0.0
2018-May-20 02:28N 34°40' E 135°11'0 0.0
2018-May-20 01:58N 34°40' E 135°11'0 0.0
2018-May-20 01:28N 34°40' E 135°11'0 0.0
2018-May-20 00:58N 34°40' E 135°11'0 0.0
2018-May-20 00:28N 34°40' E 135°11'0 0.0
2018-May-19 23:52N 34°40' E 135°11'0 0.0
2018-May-19 23:30N 34°40' E 135°11'2 3.9
2018-May-19 23:00N 34°38' E 135°11'2 3.5
2018-May-19 22:26N 34°37' E 135°09'0 0.0
2018-May-19 21:56N 34°37' E 135°09'0 0.0
2018-May-19 21:26N 34°37' E 135°09'0 0.0
2018-May-19 20:50N 34°37' E 135°09'0 0.0
2018-May-19 20:26N 34°37' E 135°09'0 0.0
2018-May-19 19:59N 34°37' E 135°09'0 0.1
2018-May-19 19:26N 34°37' E 135°09'0 0.0
2018-May-19 18:53N 34°37' E 135°09'0 0.0
2018-May-19 18:29N 34°37' E 135°09'0 0.0
2018-May-19 17:59N 34°37' E 135°09'0 0.0
2018-May-19 17:29N 34°37' E 135°09'0 0.0
2018-May-19 16:59N 34°37' E 135°09'0 0.1
2018-May-19 16:26N 34°37' E 135°09'0 0.0
2018-May-19 15:56N 34°37' E 135°09'0 0.0
2018-May-19 15:26N 34°37' E 135°09'0 0.0
2018-May-19 14:44N 34°37' E 135°09'0 0.0
2018-May-19 14:26N 34°37' E 135°09'0 0.0
2018-May-19 13:56N 34°37' E 135°09'0 0.0
2018-May-19 13:26N 34°37' E 135°09'0 0.0
2018-May-19 12:56N 34°37' E 135°09'0 0.0
2018-May-19 12:26N 34°37' E 135°09'0 0.0
2018-May-19 11:50N 34°37' E 135°09'0 0.0
2018-May-19 11:26N 34°37' E 135°09'0 0.0
2018-May-19 10:56N 34°37' E 135°09'0 0.0
2018-May-19 10:29N 34°37' E 135°09'0 0.1
2018-May-19 09:56N 34°37' E 135°09'0 0.0
2018-May-19 09:29N 34°37' E 135°09'0 0.9
2018-May-19 09:00N 34°36' E 135°09'611.6
2018-May-19 08:30N 34°37' E 135°02'714.7
2018-May-19 08:00N 34°38' E 134°53'712.3
2018-May-19 07:27N 34°43' E 134°48'1 2.0
2018-May-19 06:55N 34°44' E 134°48'0 0.0
2018-May-19 03:37N 34°44' E 134°48'0 0.0
2018-May-19 01:52N 34°44' E 134°48'0 0.0
2018-May-19 01:25N 34°44' E 134°48'1 1.4
2018-May-19 00:40N 34°43' E 134°47'0 1.1
2018-May-19 00:27N 34°43' E 134°48'0 0.0
2018-May-18 18:54N 34°43' E 134°48'0 0.0
2018-May-18 17:33N 34°43' E 134°48'0 0.0
2018-May-18 17:27N 34°43' E 134°48'0 0.0
2018-May-18 15:36N 34°43' E 134°48'0 0.0
2018-May-18 15:21N 34°43' E 134°48'0 0.0
2018-May-18 15:00N 34°43' E 134°48'0 0.0
2018-May-18 14:24N 34°43' E 134°48'0 0.0
2018-May-18 13:33N 34°43' E 134°48'0 0.0
2018-May-18 13:27N 34°43' E 134°48'0 0.0
2018-May-18 12:57N 34°43' E 134°48'0 0.1
2018-May-18 12:30N 34°43' E 134°48'0 0.0
2018-May-18 12:00N 34°43' E 134°48'0 0.0
2018-May-18 11:27N 34°43' E 134°48'0 0.0
2018-May-18 11:00N 34°43' E 134°48'0 0.0
2018-May-18 10:30N 34°43' E 134°48'0 0.0
2018-May-18 09:54N 34°43' E 134°48'0 0.0
2018-May-18 08:24N 34°43' E 134°48'4 8.5
2018-May-18 07:59N 34°40' E 134°50'5 9.1
2018-May-18 07:29N 34°37' E 134°54'6 9.6
2018-May-18 06:54N 34°37' E 135°01'3 6.9
2018-May-18 06:30N 34°36' E 135°04'5 9.9
2018-May-18 06:00N 34°35' E 135°10'611.9
2018-May-18 05:30N 34°35' E 135°17'610.9
2018-May-18 05:00N 34°34' E 135°24'2 2.1
2018-May-18 04:08N 34°33' E 135°25'0 0.0
2018-May-18 03:44N 34°33' E 135°25'0 0.0
2018-May-18 00:07N 34°33' E 135°25'0 0.2
2018-May-18 00:00N 34°33' E 135°25'3 6.4
2018-May-17 23:29N 34°33' E 135°21'2 3.3
2018-May-17 23:00N 34°32' E 135°20'0 0.0
2018-May-17 22:30N 34°32' E 135°20'0 0.0
2018-May-17 22:00N 34°32' E 135°20'0 0.0
2018-May-17 21:30N 34°32' E 135°20'0 0.0
2018-May-17 21:00N 34°32' E 135°20'0 0.0
2018-May-17 20:30N 34°32' E 135°20'0 0.0
2018-May-17 19:48N 34°32' E 135°20'0 0.0
2018-May-17 19:30N 34°32' E 135°20'0 0.0
2018-May-17 19:00N 34°32' E 135°20'0 0.0
2018-May-17 18:30N 34°32' E 135°20'0 0.0
2018-May-17 18:00N 34°32' E 135°20'0 0.0
2018-May-17 17:30N 34°32' E 135°20'0 0.0
2018-May-17 17:00N 34°32' E 135°20'0 0.0
2018-May-17 16:30N 34°32' E 135°20'0 0.0
2018-May-17 16:00N 34°32' E 135°20'0 0.0
2018-May-17 15:24N 34°32' E 135°20'0 0.1
2018-May-17 14:54N 34°32' E 135°20'0 0.0
2018-May-17 14:30N 34°32' E 135°20'0 0.1
2018-May-17 14:00N 34°32' E 135°20'0 0.0
2018-May-17 13:24N 34°32' E 135°20'0 0.0
2018-May-17 13:00N 34°32' E 135°20'0 0.0
2018-May-17 12:30N 34°32' E 135°20'0 0.0
2018-May-17 12:00N 34°32' E 135°20'0 0.0
2018-May-17 11:30N 34°32' E 135°20'0 0.0
2018-May-17 11:00N 34°32' E 135°20'0 0.0
2018-May-17 10:30N 34°32' E 135°20'0 0.0
2018-May-17 09:48N 34°32' E 135°20'0 0.0
2018-May-17 09:30N 34°32' E 135°20'0 0.0
2018-May-17 09:00N 34°32' E 135°20'0 0.0
2018-May-17 08:30N 34°32' E 135°20'2 4.9
2018-May-17 08:00N 34°33' E 135°17'713.2
2018-May-17 07:30N 34°34' E 135°09'815.4
2018-May-17 07:01N 34°37' E 135°00'814.7
2018-May-17 06:30N 34°38' E 134°51'611.6
2018-May-17 05:58N 34°44' E 134°48'0 0.6
2018-May-17 05:25N 34°44' E 134°48'0 0.0
2018-May-17 04:49N 34°44' E 134°48'0 0.0
2018-May-17 02:10N 34°44' E 134°48'0 0.0
2018-May-17 01:46N 34°44' E 134°48'0 0.0
2018-May-17 01:22N 34°44' E 134°48'0 0.0
2018-May-17 00:43N 34°44' E 134°48'0 0.0
2018-May-17 00:28N 34°44' E 134°48'0 0.0
2018-May-16 23:49N 34°44' E 134°48'0 0.4
2018-May-16 23:30N 34°44' E 134°48'1 1.2
2018-May-16 22:42N 34°43' E 134°47'0 0.0
2018-May-16 22:30N 34°43' E 134°47'0 0.0
2018-May-16 20:21N 34°43' E 134°48'0 0.0
2018-May-16 16:09N 34°43' E 134°48'0 0.0
2018-May-16 15:57N 34°43' E 134°48'0 0.0
2018-May-16 15:27N 34°43' E 134°48'0 0.0
2018-May-16 14:57N 34°43' E 134°48'0 0.1
2018-May-16 14:09N 34°43' E 134°48'0 0.2
2018-May-16 13:51N 34°43' E 134°47'0 0.0
2018-May-16 13:27N 34°43' E 134°47'0 0.0
2018-May-16 12:57N 34°43' E 134°47'0 0.0
2018-May-16 12:27N 34°43' E 134°47'0 0.0
2018-May-16 12:00N 34°43' E 134°47'0 0.0
2018-May-16 10:03N 34°43' E 134°47'0 0.0
2018-May-16 10:00N 34°43' E 134°47'0 0.0
2018-May-16 09:27N 34°43' E 134°47'2 1.6
2018-May-16 08:19N 34°41' E 134°48'310.5
2018-May-16 08:00N 34°39' E 134°51'611.0
2018-May-16 07:25N 34°38' E 134°58'4 9.5
2018-May-16 07:00N 34°36' E 135°03'4 7.6
2018-May-16 06:30N 34°35' E 135°07'611.4
2018-May-16 06:00N 34°34' E 135°14'611.5
2018-May-16 05:30N 34°34' E 135°21'4 5.4
2018-May-16 04:49N 34°33' E 135°25'0 0.0
2018-May-16 04:28N 34°33' E 135°25'0 0.0
2018-May-16 03:58N 34°33' E 135°25'0 0.0
2018-May-16 00:23N 34°33' E 135°25'1 3.2
2018-May-16 00:00N 34°33' E 135°24'5 9.1
2018-May-15 23:30N 34°32' E 135°19'0 0.1
2018-May-15 22:58N 34°32' E 135°19'0 0.1
2018-May-15 22:28N 34°32' E 135°19'0 0.0
2018-May-15 21:58N 34°32' E 135°19'0 0.0
2018-May-15 21:28N 34°32' E 135°19'0 0.1
2018-May-15 20:55N 34°32' E 135°19'0 0.0
2018-May-15 20:28N 34°32' E 135°19'0 0.0
2018-May-15 19:58N 34°32' E 135°19'0 0.0
2018-May-15 19:28N 34°32' E 135°19'0 0.0
2018-May-15 18:58N 34°32' E 135°19'0 0.0
2018-May-15 18:28N 34°32' E 135°19'0 0.0
2018-May-15 17:58N 34°32' E 135°19'0 0.0
2018-May-15 17:28N 34°32' E 135°19'0 0.0
2018-May-15 16:58N 34°32' E 135°19'0 0.0
2018-May-15 16:22N 34°32' E 135°19'0 0.0
2018-May-15 15:58N 34°32' E 135°19'0 0.0
2018-May-15 15:28N 34°32' E 135°19'0 0.0
2018-May-15 14:58N 34°32' E 135°19'0 0.0
2018-May-15 14:28N 34°32' E 135°19'0 0.1
2018-May-15 13:58N 34°32' E 135°19'0 0.0
2018-May-15 13:28N 34°32' E 135°19'0 0.0
2018-May-15 12:58N 34°32' E 135°19'0 0.1
2018-May-15 12:28N 34°32' E 135°19'0 0.0
2018-May-15 11:58N 34°32' E 135°19'0 0.0
2018-May-15 11:30N 34°32' E 135°19'5 9.1
2018-May-15 11:00N 34°34' E 135°14'713.9
2018-May-15 10:30N 34°35' E 135°05'4 8.9
2018-May-15 10:00N 34°37' E 135°01'5 9.5
2018-May-15 09:29N 34°36' E 134°55'510.1
2018-May-15 09:00N 34°39' E 134°50'5 9.8
2018-May-15 08:30N 34°44' E 134°48'0 0.5
2018-May-15 07:56N 34°44' E 134°48'0 0.0
2018-May-15 07:26N 34°44' E 134°48'0 0.0
2018-May-15 06:50N 34°44' E 134°48'0 0.0
2018-May-15 06:26N 34°44' E 134°48'0 0.0
2018-May-15 05:56N 34°44' E 134°48'0 0.0
2018-May-15 03:38N 34°44' E 134°48'0 0.0
2018-May-15 03:20N 34°44' E 134°48'0 0.0
2018-May-15 02:50N 34°44' E 134°48'0 0.0
2018-May-15 02:29N 34°44' E 134°48'0 0.8
2018-May-15 01:59N 34°44' E 134°48'1 2.3
2018-May-15 01:30N 34°43' E 134°47'0 0.0
2018-May-15 01:00N 34°43' E 134°47'0 0.1
2018-May-15 00:30N 34°43' E 134°47'0 0.0
2018-May-15 00:00N 34°43' E 134°47'0 0.0
2018-May-14 23:30N 34°43' E 134°47'0 0.0
2018-May-14 23:00N 34°43' E 134°47'0 0.0
2018-May-14 22:30N 34°43' E 134°47'0 0.0
2018-May-14 22:00N 34°43' E 134°47'0 0.0
2018-May-14 21:30N 34°43' E 134°47'0 0.0
2018-May-14 21:00N 34°43' E 134°47'0 0.0
2018-May-14 20:30N 34°42' E 134°47'0 0.0
2018-May-14 20:00N 34°42' E 134°47'0 0.1
2018-May-14 19:30N 34°42' E 134°47'0 0.0
2018-May-14 19:00N 34°42' E 134°47'0 0.0
2018-May-14 18:30N 34°42' E 134°47'0 0.0
2018-May-14 18:00N 34°42' E 134°47'0 0.0
2018-May-14 17:30N 34°42' E 134°47'0 0.0
2018-May-14 16:57N 34°42' E 134°47'0 0.0
2018-May-14 16:30N 34°42' E 134°47'0 0.0
2018-May-14 16:00N 34°42' E 134°47'0 0.0
2018-May-14 15:30N 34°42' E 134°47'0 0.0
2018-May-14 15:00N 34°42' E 134°47'0 0.0
2018-May-14 14:30N 34°42' E 134°47'0 0.0
2018-May-14 14:00N 34°42' E 134°47'0 0.0
2018-May-14 13:30N 34°42' E 134°47'0 0.1
2018-May-14 13:00N 34°43' E 134°47'0 0.0
2018-May-14 12:30N 34°43' E 134°47'0 0.0
2018-May-14 12:00N 34°43' E 134°47'0 0.0
2018-May-14 11:30N 34°43' E 134°47'0 0.0
2018-May-14 11:00N 34°43' E 134°47'0 0.0
2018-May-14 10:30N 34°43' E 134°47'0 0.0
2018-May-14 10:00N 34°43' E 134°47'0 0.0
2018-May-14 09:30N 34°43' E 134°47'0 0.0
2018-May-14 08:54N 34°43' E 134°47'0 0.3
2018-May-14 08:30N 34°42' E 134°47'3 6.6
2018-May-14 08:00N 34°40' E 134°49'612.1
2018-May-14 07:30N 34°37' E 134°56'611.4
2018-May-14 07:00N 34°37' E 135°03'510.1
2018-May-14 06:30N 34°35' E 135°09'611.8
2018-May-14 06:00N 34°34' E 135°16'510.9
2018-May-14 05:30N 34°34' E 135°22'3 4.8
2018-May-14 04:56N 34°33' E 135°25'0 0.0
2018-May-14 04:26N 34°33' E 135°25'0 0.0
2018-May-14 03:56N 34°33' E 135°25'0 0.0
2018-May-14 03:29N 34°33' E 135°25'0 0.0
2018-May-14 02:59N 34°33' E 135°25'0 0.0
2018-May-14 02:29N 34°33' E 135°25'0 0.0
2018-May-14 01:59N 34°33' E 135°25'0 0.0
2018-May-14 01:29N 34°33' E 135°25'0 0.0
2018-May-14 00:59N 34°33' E 135°25'0 0.0
2018-May-14 00:27N 34°33' E 135°25'0 0.6
2018-May-14 00:00N 34°33' E 135°25'1 2.5
2018-May-13 23:30N 34°33' E 135°24'4 8.4
2018-May-13 23:00N 34°34' E 135°19'5 9.6
2018-May-13 22:30N 34°34' E 135°13'613.0
2018-May-13 22:01N 34°35' E 135°05'510.0
2018-May-13 21:30N 34°37' E 134°60'510.0
2018-May-13 21:00N 34°37' E 134°54'510.7
2018-May-13 20:30N 34°40' E 134°49'3 7.0
2018-May-13 20:00N 34°43' E 134°47'0 0.1
2018-May-13 19:26N 34°43' E 134°47'0 0.1
2018-May-13 18:56N 34°43' E 134°47'0 0.0
2018-May-13 18:29N 34°44' E 134°47'0 0.0
2018-May-13 17:50N 34°43' E 134°47'0 0.0
2018-May-13 17:20N 34°43' E 134°47'0 0.0
2018-May-13 16:56N 34°43' E 134°47'0 0.0
2018-May-13 16:26N 34°43' E 134°47'0 0.1
2018-May-13 15:56N 34°43' E 134°47'0 0.0
2018-May-13 15:14N 34°43' E 134°47'0 0.0
2018-May-13 14:56N 34°43' E 134°47'0 0.0
2018-May-13 14:26N 34°43' E 134°47'0 0.0
2018-May-13 13:56N 34°43' E 134°47'0 0.1
2018-May-13 13:26N 34°44' E 134°47'0 0.1
2018-May-13 12:56N 34°44' E 134°47'0 0.0
2018-May-13 12:26N 34°44' E 134°47'0 0.0
2018-May-13 11:59N 34°44' E 134°47'0 0.0
2018-May-13 11:29N 34°44' E 134°47'0 0.0
2018-May-13 10:59N 34°44' E 134°47'0 0.0
2018-May-13 10:29N 34°44' E 134°47'0 0.0
2018-May-13 09:59N 34°44' E 134°47'0 0.0
2018-May-13 09:29N 34°44' E 134°47'0 0.2
2018-May-13 08:59N 34°44' E 134°47'1 1.4
2018-May-13 08:29N 34°44' E 134°48'0 0.0
2018-May-13 07:59N 34°44' E 134°48'0 0.0
2018-May-13 07:29N 34°44' E 134°48'0 0.0
2018-May-13 06:59N 34°44' E 134°48'0 0.0
2018-May-13 06:23N 34°44' E 134°48'0 0.0
2018-May-13 05:59N 34°44' E 134°48'0 0.0
2018-May-13 05:23N 34°44' E 134°48'0 0.0
2018-May-13 04:59N 34°44' E 134°48'0 0.0
2018-May-13 02:59N 34°44' E 134°48'0 0.0
2018-May-13 02:28N 34°44' E 134°48'1 2.5
2018-May-13 02:00N 34°43' E 134°48'0 0.1
2018-May-13 01:30N 34°43' E 134°48'1 1.1
2018-May-13 00:58N 34°42' E 134°47'0 0.1
2018-May-13 00:28N 34°42' E 134°47'0 0.0
2018-May-12 23:58N 34°42' E 134°47'0 0.1
2018-May-12 23:25N 34°42' E 134°47'0 0.0
2018-May-12 22:58N 34°42' E 134°47'0 0.0
2018-May-12 22:28N 34°42' E 134°47'0 0.0
2018-May-12 21:55N 34°42' E 134°47'0 0.0
2018-May-12 21:28N 34°42' E 134°47'0 0.0
2018-May-12 20:58N 34°42' E 134°47'0 0.0
2018-May-12 20:28N 34°42' E 134°47'0 0.0
2018-May-12 19:58N 34°42' E 134°47'0 0.0
2018-May-12 19:28N 34°42' E 134°47'0 0.0
2018-May-12 18:58N 34°42' E 134°47'0 0.0
2018-May-12 18:25N 34°42' E 134°47'0 0.1
2018-May-12 17:58N 34°42' E 134°47'0 0.1
2018-May-12 17:25N 34°42' E 134°47'0 0.0
2018-May-12 16:55N 34°42' E 134°47'0 0.0
2018-May-12 16:28N 34°42' E 134°47'0 0.0
2018-May-12 15:55N 34°42' E 134°47'0 0.0
2018-May-12 15:25N 34°42' E 134°47'0 0.0
2018-May-12 14:55N 34°42' E 134°47'0 0.0
2018-May-12 14:19N 34°42' E 134°47'0 0.1
2018-May-12 13:58N 34°42' E 134°47'0 0.1
2018-May-12 13:25N 34°42' E 134°47'0 0.1
2018-May-12 12:55N 34°42' E 134°47'0 0.1
2018-May-12 12:25N 34°42' E 134°47'0 0.0
2018-May-12 11:55N 34°42' E 134°47'0 0.0
2018-May-12 11:28N 34°42' E 134°47'0 0.0
2018-May-12 10:55N 34°42' E 134°47'0 0.0
2018-May-12 10:28N 34°42' E 134°47'2 3.6
2018-May-12 10:00N 34°41' E 134°48'612.6
2018-May-12 09:30N 34°37' E 134°54'714.0
2018-May-12 09:01N 34°37' E 135°03'611.8
2018-May-12 08:30N 34°35' E 135°09'611.7
2018-May-12 08:00N 34°34' E 135°17'510.9
2018-May-12 07:30N 34°34' E 135°23'2 3.9
2018-May-12 06:58N 34°33' E 135°25'0 0.0
2018-May-12 06:28N 34°33' E 135°25'0 0.0
2018-May-12 05:58N 34°33' E 135°25'0 0.0
2018-May-12 05:25N 34°33' E 135°25'0 0.0
2018-May-12 04:58N 34°33' E 135°25'0 0.0
2018-May-12 04:28N 34°33' E 135°25'0 0.0
2018-May-12 03:58N 34°33' E 135°25'0 0.0
2018-May-12 03:28N 34°33' E 135°25'0 0.0
2018-May-12 02:55N 34°33' E 135°25'0 0.1
2018-May-12 02:31N 34°33' E 135°25'2 4.1
2018-May-12 02:00N 34°34' E 135°23'2 3.6
2018-May-12 01:31N 34°34' E 135°21'5 9.3
2018-May-12 01:00N 34°34' E 135°16'612.5
2018-May-12 00:30N 34°35' E 135°08'612.6
2018-May-12 00:01N 34°37' E 135°01'612.5
2018-May-11 23:30N 34°35' E 134°54'611.7
2018-May-11 23:00N 34°33' E 134°47'611.8
2018-May-11 22:31N 34°30' E 134°41'612.4
2018-May-11 22:00N 34°28' E 134°34'612.4
2018-May-11 21:30N 34°26' E 134°27'612.2
2018-May-11 21:00N 34°24' E 134°20'611.6
2018-May-11 20:30N 34°24' E 134°13'711.2
2018-May-11 19:54N 34°26' E 134°05'  
Track history (hours):
 
Tides and Currents Weather Stations Pressure Air Temp Water Temp Dewpoint Dewpoint Depression Visibility Wind Speed Wind Dir Waves Ship Positions

Obelix

Last reported at 2018-May-21 13:37 UTC. Time now 2018-May-21 14:38 UTC.
Position N 34°43' E 134°48'.

Length 73 m; draft 4.5 m.

Type: Tanker. MMSI: 432528000.

Date/timePositionNaut miles runAvg speedWind from/ knotsBaromVisibWave heightAir tempDewpointWater temp
2018-May-21 13:37N 34°43' E 134°48'0 0.0
2018-May-21 09:28N 34°43' E 134°48'4 7.2
2018-May-21 08:59N 34°40' E 134°50'4 9.4
2018-May-21 08:30N 34°37' E 134°54'610.5
2018-May-21 07:55N 34°37' E 135°02'410.3
2018-May-21 07:30N 34°35' E 135°06'611.6
2018-May-21 07:00N 34°34' E 135°13'510.0
2018-May-21 06:30N 34°32' E 135°19'1 1.5
2018-May-21 05:55N 34°32' E 135°20'0 0.1
2018-May-21 05:29N 34°32' E 135°20'4 8.5
2018-May-21 04:59N 34°33' E 135°25'1 1.7
2018-May-21 04:28N 34°33' E 135°25'0 0.0
2018-May-21 03:55N 34°33' E 135°25'0 0.0
2018-May-21 03:19N 34°33' E 135°25'0 0.0
2018-May-21 02:55N 34°33' E 135°25'0 0.0
2018-May-21 02:25N 34°33' E 135°25'0 0.0
2018-May-21 01:49N 34°33' E 135°25'0 0.0
2018-May-21 01:25N 34°33' E 135°25'0 0.0
2018-May-21 00:55N 34°33' E 135°25'0 0.0
2018-May-21 00:25N 34°33' E 135°25'0 0.9
2018-May-21 00:00N 34°33' E 135°25'1 1.7
2018-May-20 23:30N 34°33' E 135°24'3 6.8
2018-May-20 23:01N 34°34' E 135°20'510.1
2018-May-20 22:30N 34°35' E 135°14'5 9.7
2018-May-20 22:00N 34°39' E 135°11'1 1.5
2018-May-20 21:28N 34°40' E 135°11'0 0.0
2018-May-20 20:58N 34°40' E 135°11'0 0.0
2018-May-20 20:28N 34°40' E 135°11'0 0.0
2018-May-20 19:58N 34°40' E 135°11'0 0.0
2018-May-20 19:28N 34°40' E 135°11'0 0.0
2018-May-20 18:58N 34°40' E 135°11'0 0.0
2018-May-20 18:28N 34°40' E 135°11'0 0.0
2018-May-20 17:58N 34°40' E 135°11'0 0.0
2018-May-20 17:28N 34°40' E 135°11'0 0.0
2018-May-20 16:58N 34°40' E 135°11'0 0.0
2018-May-20 16:28N 34°40' E 135°11'0 0.0
2018-May-20 15:58N 34°40' E 135°11'0 0.0
2018-May-20 15:28N 34°40' E 135°11'0 0.0
2018-May-20 14:58N 34°40' E 135°11'0 0.0
2018-May-20 14:28N 34°40' E 135°11'0 0.0
2018-May-20 13:58N 34°40' E 135°11'0 0.0
2018-May-20 13:28N 34°40' E 135°11'0 0.0
2018-May-20 12:58N 34°40' E 135°11'0 0.0
2018-May-20 12:28N 34°40' E 135°11'0 0.0
2018-May-20 11:58N 34°40' E 135°11'0 0.0
2018-May-20 11:28N 34°40' E 135°11'0 0.0
2018-May-20 10:58N 34°40' E 135°11'0 0.0
2018-May-20 10:28N 34°40' E 135°11'0 0.0
2018-May-20 09:58N 34°40' E 135°11'0 0.0
2018-May-20 09:28N 34°40' E 135°11'0 0.0
2018-May-20 08:58N 34°40' E 135°11'0 0.0
2018-May-20 08:28N 34°40' E 135°11'0 0.0
2018-May-20 07:58N 34°40' E 135°11'0 0.0
2018-May-20 07:28N 34°40' E 135°11'0 0.0
2018-May-20 06:58N 34°40' E 135°11'0 0.0
2018-May-20 06:28N 34°40' E 135°11'0 0.0
2018-May-20 05:52N 34°40' E 135°11'0 0.0
2018-May-20 05:28N 34°40' E 135°11'0 0.0
2018-May-20 04:58N 34°40' E 135°11'0 0.0
2018-May-20 04:28N 34°40' E 135°11'0 0.0
2018-May-20 03:58N 34°40' E 135°11'0 0.0
2018-May-20 03:28N 34°40' E 135°11'0 0.0
2018-May-20 02:58N 34°40' E 135°11'0 0.0
2018-May-20 02:28N 34°40' E 135°11'0 0.0
2018-May-20 01:58N 34°40' E 135°11'0 0.0
2018-May-20 01:28N 34°40' E 135°11'0 0.0
2018-May-20 00:58N 34°40' E 135°11'0 0.0
2018-May-20 00:28N 34°40' E 135°11'0 0.0
2018-May-19 23:52N 34°40' E 135°11'0 0.0
2018-May-19 23:30N 34°40' E 135°11'2 3.9
2018-May-19 23:00N 34°38' E 135°11'2 3.5
2018-May-19 22:26N 34°37' E 135°09'0 0.0
2018-May-19 21:56N 34°37' E 135°09'0 0.0
2018-May-19 21:26N 34°37' E 135°09'0 0.0
2018-May-19 20:50N 34°37' E 135°09'0 0.0
2018-May-19 20:26N 34°37' E 135°09'0 0.0
2018-May-19 19:59N 34°37' E 135°09'0 0.1
2018-May-19 19:26N 34°37' E 135°09'0 0.0
2018-May-19 18:53N 34°37' E 135°09'0 0.0
2018-May-19 18:29N 34°37' E 135°09'0 0.0
2018-May-19 17:59N 34°37' E 135°09'0 0.0
2018-May-19 17:29N 34°37' E 135°09'0 0.0
2018-May-19 16:59N 34°37' E 135°09'0 0.1
2018-May-19 16:26N 34°37' E 135°09'0 0.0
2018-May-19 15:56N 34°37' E 135°09'0 0.0
2018-May-19 15:26N 34°37' E 135°09'0 0.0
2018-May-19 14:44N 34°37' E 135°09'0 0.0
2018-May-19 14:26N 34°37' E 135°09'0 0.0
2018-May-19 13:56N 34°37' E 135°09'0 0.0
2018-May-19 13:26N 34°37' E 135°09'0 0.0
2018-May-19 12:56N 34°37' E 135°09'0 0.0
2018-May-19 12:26N 34°37' E 135°09'0 0.0
2018-May-19 11:50N 34°37' E 135°09'0 0.0
2018-May-19 11:26N 34°37' E 135°09'0 0.0
2018-May-19 10:56N 34°37' E 135°09'0 0.0
2018-May-19 10:29N 34°37' E 135°09'0 0.1
2018-May-19 09:56N 34°37' E 135°09'0 0.0
2018-May-19 09:29N 34°37' E 135°09'0 0.9
2018-May-19 09:00N 34°36' E 135°09'611.6
2018-May-19 08:30N 34°37' E 135°02'714.7
2018-May-19 08:00N 34°38' E 134°53'712.3
2018-May-19 07:27N 34°43' E 134°48'1 2.0
2018-May-19 06:55N 34°44' E 134°48'0 0.0
2018-May-19 03:37N 34°44' E 134°48'0 0.0
2018-May-19 01:52N 34°44' E 134°48'0 0.0
2018-May-19 01:25N 34°44' E 134°48'1 1.4
2018-May-19 00:40N 34°43' E 134°47'0 1.1
2018-May-19 00:27N 34°43' E 134°48'0 0.0
2018-May-18 18:54N 34°43' E 134°48'0 0.0
2018-May-18 17:33N 34°43' E 134°48'0 0.0
2018-May-18 17:27N 34°43' E 134°48'0 0.0
2018-May-18 15:36N 34°43' E 134°48'0 0.0
2018-May-18 15:21N 34°43' E 134°48'0 0.0
2018-May-18 15:00N 34°43' E 134°48'0 0.0
2018-May-18 14:24N 34°43' E 134°48'0 0.0
2018-May-18 13:33N 34°43' E 134°48'0 0.0
2018-May-18 13:27N 34°43' E 134°48'0 0.0
2018-May-18 12:57N 34°43' E 134°48'0 0.1
2018-May-18 12:30N 34°43' E 134°48'0 0.0
2018-May-18 12:00N 34°43' E 134°48'0 0.0
2018-May-18 11:27N 34°43' E 134°48'0 0.0
2018-May-18 11:00N 34°43' E 134°48'0 0.0
2018-May-18 10:30N 34°43' E 134°48'0 0.0
2018-May-18 09:54N 34°43' E 134°48'0 0.0
2018-May-18 08:24N 34°43' E 134°48'4 8.5
2018-May-18 07:59N 34°40' E 134°50'5 9.1
2018-May-18 07:29N 34°37' E 134°54'6 9.6
2018-May-18 06:54N 34°37' E 135°01'3 6.9
2018-May-18 06:30N 34°36' E 135°04'5 9.9
2018-May-18 06:00N 34°35' E 135°10'611.9
2018-May-18 05:30N 34°35' E 135°17'610.9
2018-May-18 05:00N 34°34' E 135°24'2 2.1
2018-May-18 04:08N 34°33' E 135°25'0 0.0
2018-May-18 03:44N 34°33' E 135°25'0 0.0
2018-May-18 00:07N 34°33' E 135°25'0 0.2
2018-May-18 00:00N 34°33' E 135°25'3 6.4
2018-May-17 23:29N 34°33' E 135°21'2 3.3
2018-May-17 23:00N 34°32' E 135°20'0 0.0
2018-May-17 22:30N 34°32' E 135°20'0 0.0
2018-May-17 22:00N 34°32' E 135°20'0 0.0
2018-May-17 21:30N 34°32' E 135°20'0 0.0
2018-May-17 21:00N 34°32' E 135°20'0 0.0
2018-May-17 20:30N 34°32' E 135°20'0 0.0
2018-May-17 19:48N 34°32' E 135°20'0 0.0
2018-May-17 19:30N 34°32' E 135°20'0 0.0
2018-May-17 19:00N 34°32' E 135°20'0 0.0
2018-May-17 18:30N 34°32' E 135°20'0 0.0
2018-May-17 18:00N 34°32' E 135°20'0 0.0
2018-May-17 17:30N 34°32' E 135°20'0 0.0
2018-May-17 17:00N 34°32' E 135°20'0 0.0
2018-May-17 16:30N 34°32' E 135°20'0 0.0
2018-May-17 16:00N 34°32' E 135°20'0 0.0
2018-May-17 15:24N 34°32' E 135°20'0 0.1
2018-May-17 14:54N 34°32' E 135°20'0 0.0
2018-May-17 14:30N 34°32' E 135°20'0 0.1
2018-May-17 14:00N 34°32' E 135°20'0 0.0
2018-May-17 13:24N 34°32' E 135°20'0 0.0
2018-May-17 13:00N 34°32' E 135°20'0 0.0
2018-May-17 12:30N 34°32' E 135°20'0 0.0
2018-May-17 12:00N 34°32' E 135°20'0 0.0
2018-May-17 11:30N 34°32' E 135°20'0 0.0
2018-May-17 11:00N 34°32' E 135°20'0 0.0
2018-May-17 10:30N 34°32' E 135°20'0 0.0
2018-May-17 09:48N 34°32' E 135°20'0 0.0
2018-May-17 09:30N 34°32' E 135°20'0 0.0
2018-May-17 09:00N 34°32' E 135°20'0 0.0
2018-May-17 08:30N 34°32' E 135°20'2 4.9
2018-May-17 08:00N 34°33' E 135°17'713.2
2018-May-17 07:30N 34°34' E 135°09'815.4
2018-May-17 07:01N 34°37' E 135°00'814.7
2018-May-17 06:30N 34°38' E 134°51'611.6
2018-May-17 05:58N 34°44' E 134°48'0 0.6
2018-May-17 05:25N 34°44' E 134°48'0 0.0
2018-May-17 04:49N 34°44' E 134°48'0 0.0
2018-May-17 02:10N 34°44' E 134°48'0 0.0
2018-May-17 01:46N 34°44' E 134°48'0 0.0
2018-May-17 01:22N 34°44' E 134°48'0 0.0
2018-May-17 00:43N 34°44' E 134°48'0 0.0
2018-May-17 00:28N 34°44' E 134°48'0 0.0
2018-May-16 23:49N 34°44' E 134°48'0 0.4
2018-May-16 23:30N 34°44' E 134°48'1 1.2
2018-May-16 22:42N 34°43' E 134°47'0 0.0
2018-May-16 22:30N 34°43' E 134°47'0 0.0
2018-May-16 20:21N 34°43' E 134°48'0 0.0
2018-May-16 16:09N 34°43' E 134°48'0 0.0
2018-May-16 15:57N 34°43' E 134°48'0 0.0
2018-May-16 15:27N 34°43' E 134°48'0 0.0
2018-May-16 14:57N 34°43' E 134°48'0 0.1
2018-May-16 14:09N 34°43' E 134°48'0 0.2
2018-May-16 13:51N 34°43' E 134°47'0 0.0
2018-May-16 13:27N 34°43' E 134°47'0 0.0
2018-May-16 12:57N 34°43' E 134°47'0 0.0
2018-May-16 12:27N 34°43' E 134°47'0 0.0
2018-May-16 12:00N 34°43' E 134°47'0 0.0
2018-May-16 10:03N 34°43' E 134°47'0 0.0
2018-May-16 10:00N 34°43' E 134°47'0 0.0
2018-May-16 09:27N 34°43' E 134°47'2 1.6
2018-May-16 08:19N 34°41' E 134°48'310.5
2018-May-16 08:00N 34°39' E 134°51'611.0
2018-May-16 07:25N 34°38' E 134°58'4 9.5
2018-May-16 07:00N 34°36' E 135°03'4 7.6
2018-May-16 06:30N 34°35' E 135°07'611.4
2018-May-16 06:00N 34°34' E 135°14'611.5
2018-May-16 05:30N 34°34' E 135°21'4 5.4
2018-May-16 04:49N 34°33' E 135°25'0 0.0
2018-May-16 04:28N 34°33' E 135°25'0 0.0
2018-May-16 03:58N 34°33' E 135°25'0 0.0
2018-May-16 00:23N 34°33' E 135°25'1 3.2
2018-May-16 00:00N 34°33' E 135°24'5 9.1
2018-May-15 23:30N 34°32' E 135°19'0 0.1
2018-May-15 22:58N 34°32' E 135°19'0 0.1
2018-May-15 22:28N 34°32' E 135°19'0 0.0
2018-May-15 21:58N 34°32' E 135°19'0 0.0
2018-May-15 21:28N 34°32' E 135°19'0 0.1
2018-May-15 20:55N 34°32' E 135°19'0 0.0
2018-May-15 20:28N 34°32' E 135°19'0 0.0
2018-May-15 19:58N 34°32' E 135°19'0 0.0
2018-May-15 19:28N 34°32' E 135°19'0 0.0
2018-May-15 18:58N 34°32' E 135°19'0 0.0
2018-May-15 18:28N 34°32' E 135°19'0 0.0
2018-May-15 17:58N 34°32' E 135°19'0 0.0
2018-May-15 17:28N 34°32' E 135°19'0 0.0
2018-May-15 16:58N 34°32' E 135°19'0 0.0
2018-May-15 16:22N 34°32' E 135°19'0 0.0
2018-May-15 15:58N 34°32' E 135°19'0 0.0
2018-May-15 15:28N 34°32' E 135°19'0 0.0
2018-May-15 14:58N 34°32' E 135°19'0 0.0
2018-May-15 14:28N 34°32' E 135°19'0 0.1
2018-May-15 13:58N 34°32' E 135°19'0 0.0
2018-May-15 13:28N 34°32' E 135°19'0 0.0
2018-May-15 12:58N 34°32' E 135°19'0 0.1
2018-May-15 12:28N 34°32' E 135°19'0 0.0
2018-May-15 11:58N 34°32' E 135°19'0 0.0
2018-May-15 11:30N 34°32' E 135°19'5 9.1
2018-May-15 11:00N 34°34' E 135°14'713.9
2018-May-15 10:30N 34°35' E 135°05'4 8.9
2018-May-15 10:00N 34°37' E 135°01'5 9.5
2018-May-15 09:29N 34°36' E 134°55'510.1
2018-May-15 09:00N 34°39' E 134°50'5 9.8
2018-May-15 08:30N 34°44' E 134°48'0 0.5
2018-May-15 07:56N 34°44' E 134°48'0 0.0
2018-May-15 07:26N 34°44' E 134°48'0 0.0
2018-May-15 06:50N 34°44' E 134°48'0 0.0
2018-May-15 06:26N 34°44' E 134°48'0 0.0
2018-May-15 05:56N 34°44' E 134°48'0 0.0
2018-May-15 03:38N 34°44' E 134°48'0 0.0
2018-May-15 03:20N 34°44' E 134°48'0 0.0
2018-May-15 02:50N 34°44' E 134°48'0 0.0
2018-May-15 02:29N 34°44' E 134°48'0 0.8
2018-May-15 01:59N 34°44' E 134°48'1 2.3
2018-May-15 01:30N 34°43' E 134°47'0 0.0
2018-May-15 01:00N 34°43' E 134°47'0 0.1
2018-May-15 00:30N 34°43' E 134°47'0 0.0
2018-May-15 00:00N 34°43' E 134°47'0 0.0
2018-May-14 23:30N 34°43' E 134°47'0 0.0
2018-May-14 23:00N 34°43' E 134°47'0 0.0
2018-May-14 22:30N 34°43' E 134°47'0 0.0
2018-May-14 22:00N 34°43' E 134°47'0 0.0
2018-May-14 21:30N 34°43' E 134°47'0 0.0
2018-May-14 21:00N 34°43' E 134°47'0 0.0
2018-May-14 20:30N 34°42' E 134°47'0 0.0
2018-May-14 20:00N 34°42' E 134°47'0 0.1
2018-May-14 19:30N 34°42' E 134°47'0 0.0
2018-May-14 19:00N 34°42' E 134°47'0 0.0
2018-May-14 18:30N 34°42' E 134°47'0 0.0
2018-May-14 18:00N 34°42' E 134°47'0 0.0
2018-May-14 17:30N 34°42' E 134°47'0 0.0
2018-May-14 16:57N 34°42' E 134°47'0 0.0
2018-May-14 16:30N 34°42' E 134°47'0 0.0
2018-May-14 16:00N 34°42' E 134°47'0 0.0
2018-May-14 15:30N 34°42' E 134°47'0 0.0
2018-May-14 15:00N 34°42' E 134°47'0 0.0
2018-May-14 14:30N 34°42' E 134°47'0 0.0
2018-May-14 14:00N 34°42' E 134°47'0 0.0
2018-May-14 13:30N 34°42' E 134°47'0 0.1
2018-May-14 13:00N 34°43' E 134°47'0 0.0
2018-May-14 12:30N 34°43' E 134°47'0 0.0
2018-May-14 12:00N 34°43' E 134°47'0 0.0
2018-May-14 11:30N 34°43' E 134°47'0 0.0
2018-May-14 11:00N 34°43' E 134°47'0 0.0
2018-May-14 10:30N 34°43' E 134°47'0 0.0
2018-May-14 10:00N 34°43' E 134°47'0 0.0
2018-May-14 09:30N 34°43' E 134°47'0 0.0
2018-May-14 08:54N 34°43' E 134°47'0 0.3
2018-May-14 08:30N 34°42' E 134°47'3 6.6
2018-May-14 08:00N 34°40' E 134°49'612.1
2018-May-14 07:30N 34°37' E 134°56'611.4
2018-May-14 07:00N 34°37' E 135°03'510.1
2018-May-14 06:30N 34°35' E 135°09'611.8
2018-May-14 06:00N 34°34' E 135°16'510.9
2018-May-14 05:30N 34°34' E 135°22'3 4.8
2018-May-14 04:56N 34°33' E 135°25'0 0.0
2018-May-14 04:26N 34°33' E 135°25'0 0.0
2018-May-14 03:56N 34°33' E 135°25'0 0.0
2018-May-14 03:29N 34°33' E 135°25'0 0.0
2018-May-14 02:59N 34°33' E 135°25'0 0.0
2018-May-14 02:29N 34°33' E 135°25'0 0.0
2018-May-14 01:59N 34°33' E 135°25'0 0.0
2018-May-14 01:29N 34°33' E 135°25'0 0.0
2018-May-14 00:59N 34°33' E 135°25'0 0.0
2018-May-14 00:27N 34°33' E 135°25'0 0.6
2018-May-14 00:00N 34°33' E 135°25'1 2.5
2018-May-13 23:30N 34°33' E 135°24'4 8.4
2018-May-13 23:00N 34°34' E 135°19'5 9.6
2018-May-13 22:30N 34°34' E 135°13'613.0
2018-May-13 22:01N 34°35' E 135°05'510.0
2018-May-13 21:30N 34°37' E 134°60'510.0
2018-May-13 21:00N 34°37' E 134°54'510.7
2018-May-13 20:30N 34°40' E 134°49'3 7.0
2018-May-13 20:00N 34°43' E 134°47'0 0.1
2018-May-13 19:26N 34°43' E 134°47'0 0.1
2018-May-13 18:56N 34°43' E 134°47'0 0.0
2018-May-13 18:29N 34°44' E 134°47'0 0.0
2018-May-13 17:50N 34°43' E 134°47'0 0.0
2018-May-13 17:20N 34°43' E 134°47'0 0.0
2018-May-13 16:56N 34°43' E 134°47'0 0.0
2018-May-13 16:26N 34°43' E 134°47'0 0.1
2018-May-13 15:56N 34°43' E 134°47'0 0.0
2018-May-13 15:14N 34°43' E 134°47'0 0.0
2018-May-13 14:56N 34°43' E 134°47'0 0.0
2018-May-13 14:26N 34°43' E 134°47'0 0.0
2018-May-13 13:56N 34°43' E 134°47'0 0.1
2018-May-13 13:26N 34°44' E 134°47'0 0.1
2018-May-13 12:56N 34°44' E 134°47'0 0.0
2018-May-13 12:26N 34°44' E 134°47'0 0.0
2018-May-13 11:59N 34°44' E 134°47'0 0.0
2018-May-13 11:29N 34°44' E 134°47'0 0.0
2018-May-13 10:59N 34°44' E 134°47'0 0.0
2018-May-13 10:29N 34°44' E 134°47'0 0.0
2018-May-13 09:59N 34°44' E 134°47'0 0.0
2018-May-13 09:29N 34°44' E 134°47'0 0.2
2018-May-13 08:59N 34°44' E 134°47'1 1.4
2018-May-13 08:29N 34°44' E 134°48'0 0.0
2018-May-13 07:59N 34°44' E 134°48'0 0.0
2018-May-13 07:29N 34°44' E 134°48'0 0.0
2018-May-13 06:59N 34°44' E 134°48'0 0.0
2018-May-13 06:23N 34°44' E 134°48'0 0.0
2018-May-13 05:59N 34°44' E 134°48'0 0.0
2018-May-13 05:23N 34°44' E 134°48'0 0.0
2018-May-13 04:59N 34°44' E 134°48'0 0.0
2018-May-13 02:59N 34°44' E 134°48'0 0.0
2018-May-13 02:28N 34°44' E 134°48'1 2.5
2018-May-13 02:00N 34°43' E 134°48'0 0.1
2018-May-13 01:30N 34°43' E 134°48'1 1.1
2018-May-13 00:58N 34°42' E 134°47'0 0.1
2018-May-13 00:28N 34°42' E 134°47'0 0.0
2018-May-12 23:58N 34°42' E 134°47'0 0.1
2018-May-12 23:25N 34°42' E 134°47'0 0.0
2018-May-12 22:58N 34°42' E 134°47'0 0.0
2018-May-12 22:28N 34°42' E 134°47'0 0.0
2018-May-12 21:55N 34°42' E 134°47'0 0.0
2018-May-12 21:28N 34°42' E 134°47'0 0.0
2018-May-12 20:58N 34°42' E 134°47'0 0.0
2018-May-12 20:28N 34°42' E 134°47'0 0.0
2018-May-12 19:58N 34°42' E 134°47'0 0.0
2018-May-12 19:28N 34°42' E 134°47'0 0.0
2018-May-12 18:58N 34°42' E 134°47'0 0.0
2018-May-12 18:25N 34°42' E 134°47'0 0.1
2018-May-12 17:58N 34°42' E 134°47'0 0.1
2018-May-12 17:25N 34°42' E 134°47'0 0.0
2018-May-12 16:55N 34°42' E 134°47'0 0.0
2018-May-12 16:28N 34°42' E 134°47'0 0.0
2018-May-12 15:55N 34°42' E 134°47'0 0.0
2018-May-12 15:25N 34°42' E 134°47'0 0.0
2018-May-12 14:55N 34°42' E 134°47'0 0.0
2018-May-12 14:19N 34°42' E 134°47'0 0.1
2018-May-12 13:58N 34°42' E 134°47'0 0.1
2018-May-12 13:25N 34°42' E 134°47'0 0.1
2018-May-12 12:55N 34°42' E 134°47'0 0.1
2018-May-12 12:25N 34°42' E 134°47'0 0.0
2018-May-12 11:55N 34°42' E 134°47'0 0.0
2018-May-12 11:28N 34°42' E 134°47'0 0.0
2018-May-12 10:55N 34°42' E 134°47'0 0.0
2018-May-12 10:28N 34°42' E 134°47'2 3.6
2018-May-12 10:00N 34°41' E 134°48'612.6
2018-May-12 09:30N 34°37' E 134°54'714.0
2018-May-12 09:01N 34°37' E 135°03'611.8
2018-May-12 08:30N 34°35' E 135°09'611.7
2018-May-12 08:00N 34°34' E 135°17'510.9
2018-May-12 07:30N 34°34' E 135°23'2 3.9
2018-May-12 06:58N 34°33' E 135°25'0 0.0
2018-May-12 06:28N 34°33' E 135°25'0 0.0
2018-May-12 05:58N 34°33' E 135°25'0 0.0
2018-May-12 05:25N 34°33' E 135°25'0 0.0
2018-May-12 04:58N 34°33' E 135°25'0 0.0
2018-May-12 04:28N 34°33' E 135°25'0 0.0
2018-May-12 03:58N 34°33' E 135°25'0 0.0
2018-May-12 03:28N 34°33' E 135°25'0 0.0
2018-May-12 02:55N 34°33' E 135°25'0 0.1
2018-May-12 02:31N 34°33' E 135°25'2 4.1
2018-May-12 02:00N 34°34' E 135°23'2 3.6
2018-May-12 01:31N 34°34' E 135°21'5 9.3
2018-May-12 01:00N 34°34' E 135°16'612.5
2018-May-12 00:30N 34°35' E 135°08'612.6
2018-May-12 00:01N 34°37' E 135°01'612.5
2018-May-11 23:30N 34°35' E 134°54'611.7
2018-May-11 23:00N 34°33' E 134°47'611.8
2018-May-11 22:31N 34°30' E 134°41'612.4
2018-May-11 22:00N 34°28' E 134°34'612.4
2018-May-11 21:30N 34°26' E 134°27'612.2
2018-May-11 21:00N 34°24' E 134°20'611.6
2018-May-11 20:30N 34°24' E 134°13'711.2
2018-May-11 19:54N 34°26' E 134°05'  

Dump ship's entire track history